Springfield, Illinois
Current Conditions -  °F | °C
As of 3:52 PM on Wednesday 22 Oct 2014 (Local Time) from KSPI Reporting Station
Clear Clear  
Wind Chill: 62°   Ceiling: Unl
Heat Index: 62°   Visibility: 10mi
Dew Point: 39°   Wind: 5mph
Humidity: 43%   Direction: 110°ESE
Pressure: 30.26"   Gusts: NA
Location:  39.8°N, 89.64°W
Report Text: KSPI 222052Z 11004KT 10SM CLR 17/04 A3026 RMK AO2 SLP248 T01670039 56019
Loading
Personal Weather Stations






























Interactive Weather Map New forecast layout! Learn more

10-Day Weather Forecast

Advertisements
Track Severe Weather on mobile